createdAt,value
2023-04-08T08:04:50.775Z,31.50
2023-04-08T08:10:16.802Z,35.60
2023-04-08T08:15:42.526Z,34.00
2023-04-08T08:21:08.540Z,34.80
2023-04-08T08:54:31.159Z,34.40
2023-04-08T08:59:57.068Z,34.20
2023-04-08T09:05:24.162Z,31.90
2023-04-08T09:10:50.385Z,33.00
2023-04-08T09:16:17.497Z,33.10
2023-04-08T09:21:37.950Z,33.00
2023-04-08T09:27:07.872Z,36.00
2023-04-08T09:32:33.794Z,30.70
2023-04-08T09:37:59.512Z,33.00
2023-04-08T09:43:29.643Z,33.10
2023-04-08T09:49:00.735Z,33.90
2023-04-08T09:54:35.216Z,30.10
2023-04-08T10:00:05.890Z,27.70
2023-04-08T10:05:35.794Z,31.10
2023-04-08T10:11:03.020Z,32.10
2023-04-08T10:16:42.543Z,28.90
2023-04-08T10:21:57.090Z,27.80
2023-04-08T10:27:12.805Z,29.10
2023-04-08T10:32:43.595Z,26.00
2023-04-08T10:38:03.338Z,25.10
2023-04-08T10:43:14.102Z,21.60
2023-04-08T10:48:41.769Z,23.00
2023-04-08T10:54:00.067Z,20.50
2023-04-08T10:59:20.170Z,19.90
2023-04-08T11:04:31.263Z,18.10
2023-04-08T11:09:47.570Z,23.20
2023-04-08T11:14:55.841Z,18.60
2023-04-08T11:20:06.641Z,18.10
2023-04-08T11:25:20.142Z,21.40
2023-04-08T11:30:46.332Z,23.50
2023-04-08T11:35:56.636Z,21.90
2023-04-08T11:41:22.787Z,21.60
2023-04-08T11:46:33.308Z,18.20
2023-04-08T11:52:16.087Z,19.80
2023-04-08T11:57:51.121Z,21.60
2023-04-08T12:03:17.085Z,16.70
2023-04-08T12:08:30.467Z,17.90
2023-04-08T12:13:38.916Z,17.40
2023-04-08T12:18:47.463Z,15.30
2023-04-08T12:24:13.124Z,17.00
2023-04-08T12:29:29.843Z,17.80
2023-04-08T12:34:38.089Z,21.10
2023-04-08T12:40:02.653Z,15.40
2023-04-08T12:45:31.109Z,17.30
2023-04-08T12:50:57.007Z,17.80
2023-04-08T12:56:22.711Z,17.30
2023-04-08T13:01:49.073Z,16.90
2023-04-08T13:07:07.521Z,14.20
2023-04-08T13:12:33.203Z,13.90
2023-04-08T13:17:58.910Z,13.30
2023-04-08T13:23:25.086Z,15.20
2023-04-08T13:28:31.067Z,14.30
2023-04-08T13:33:58.262Z,14.70
2023-04-08T13:39:24.277Z,14.10
2023-04-08T13:44:50.105Z,13.30
2023-04-08T13:50:15.134Z,11.30
2023-04-08T13:55:41.099Z,10.60
2023-04-08T14:00:57.084Z,11.10
2023-04-08T14:06:22.892Z,12.40
2023-04-08T14:11:42.391Z,10.60
2023-04-08T14:17:08.223Z,9.40
2023-04-08T14:22:33.902Z,10.30
2023-04-08T14:27:56.761Z,13.80
2023-04-08T14:33:13.347Z,10.90
2023-04-08T14:38:27.826Z,11.40
2023-04-08T14:43:42.377Z,11.40
2023-04-08T14:49:08.218Z,9.40
2023-04-08T14:54:27.826Z,11.10
2023-04-08T14:59:53.557Z,10.40
2023-04-08T15:05:19.704Z,10.40
2023-04-08T15:10:45.559Z,10.70
2023-04-08T15:16:03.696Z,10.50
2023-04-08T15:21:12.147Z,8.90
2023-04-08T15:26:28.183Z,9.00
2023-04-08T15:31:54.001Z,10.00
2023-04-08T15:37:19.715Z,8.80
2023-04-08T15:42:45.503Z,9.10
2023-04-08T15:47:52.422Z,8.70
2023-04-08T15:53:08.087Z,9.00
2023-04-08T15:58:13.607Z,9.20
2023-04-08T16:03:39.635Z,9.20
2023-04-08T16:08:48.553Z,9.10
2023-04-08T16:14:04.603Z,10.10
2023-04-08T16:19:23.336Z,13.50
2023-04-08T16:24:38.959Z,10.90
2023-04-08T16:29:57.374Z,12.00
2023-04-08T16:35:23.141Z,11.10
2023-04-08T16:40:48.984Z,9.50
2023-04-08T16:46:14.727Z,11.20
2023-04-08T16:51:33.126Z,10.90
2023-04-08T16:56:58.905Z,17.70
2023-04-08T17:02:24.707Z,19.30
2023-04-08T17:07:51.006Z,18.40
2023-04-08T17:13:15.700Z,20.10
2023-04-08T17:18:41.598Z,25.60
2023-04-08T17:24:07.317Z,24.90
2023-04-08T17:29:32.940Z,26.90
2023-04-08T17:34:58.817Z,26.10
2023-04-08T17:40:24.812Z,17.20
2023-04-08T17:45:50.620Z,16.90
2023-04-08T17:51:22.297Z,16.30
2023-04-08T17:56:49.548Z,18.50
2023-04-08T18:02:15.490Z,16.80
2023-04-08T18:07:41.251Z,18.90
2023-04-08T18:13:11.561Z,17.70
2023-04-08T18:18:37.695Z,19.40
2023-04-08T18:24:03.596Z,21.40
2023-04-08T18:29:29.560Z,19.30
2023-04-08T18:34:55.298Z,21.70
2023-04-08T18:40:21.048Z,19.80
2023-04-08T18:45:46.772Z,21.20
2023-04-08T18:51:12.806Z,23.20
2023-04-08T18:56:39.423Z,21.50
2023-04-08T19:02:05.188Z,22.10
2023-04-08T19:07:30.974Z,22.60
2023-04-08T19:12:56.681Z,25.20
2023-04-08T19:18:22.376Z,22.00
2023-04-08T19:23:48.365Z,23.70
2023-04-08T19:29:14.097Z,23.00
2023-04-08T19:35:01.533Z,23.80
2023-04-08T19:40:26.141Z,25.40
2023-04-08T19:45:51.903Z,24.90
2023-04-08T19:51:46.924Z,22.50
2023-04-08T19:57:12.736Z,23.00
2023-04-08T20:02:38.663Z,24.10
2023-04-08T20:08:04.601Z,22.30
2023-04-08T20:13:30.284Z,35.20
2023-04-08T20:18:35.718Z,25.50
2023-04-08T20:23:44.279Z,25.10
2023-04-08T20:28:50.874Z,23.40
2023-04-08T20:33:56.390Z,21.50
2023-04-08T20:39:02.364Z,20.80
2023-04-08T20:44:10.483Z,18.70
2023-04-08T20:49:16.370Z,22.60
2023-04-08T20:54:22.573Z,20.60
2023-04-08T20:59:28.203Z,19.20
2023-04-08T21:04:33.575Z,20.30
2023-04-08T21:09:39.052Z,20.80
2023-04-08T21:14:45.725Z,20.90
2023-04-08T21:19:52.002Z,20.50
2023-04-08T21:24:57.612Z,21.30
2023-04-08T21:30:03.802Z,20.60
2023-04-08T21:35:10.540Z,22.10
2023-04-08T21:40:16.131Z,22.40
2023-04-08T21:45:21.702Z,23.50
2023-04-08T21:50:26.971Z,23.80
2023-04-08T21:55:32.371Z,26.30
2023-04-08T22:00:37.716Z,24.20
2023-04-08T22:05:42.979Z,27.70
2023-04-08T22:10:48.399Z,21.70
2023-04-08T22:15:53.694Z,21.50
2023-04-08T22:20:59.153Z,23.30
2023-04-08T22:26:04.857Z,22.30
2023-04-08T22:31:12.368Z,21.80
2023-04-08T22:36:17.703Z,20.70
2023-04-08T22:41:24.405Z,20.80
2023-04-08T22:46:29.786Z,23.90
2023-04-08T22:51:35.253Z,21.80
2023-04-08T22:56:40.838Z,21.50
2023-04-08T23:01:46.427Z,22.90
2023-04-08T23:06:51.829Z,22.90
2023-04-08T23:11:58.054Z,23.20
2023-04-08T23:17:05.402Z,23.50
2023-04-08T23:22:11.351Z,23.50
2023-04-08T23:27:16.731Z,24.40
2023-04-08T23:32:22.126Z,24.80
2023-04-08T23:37:27.967Z,25.90
2023-04-08T23:42:33.397Z,26.30
2023-04-08T23:47:38.682Z,27.40
2023-04-08T23:52:44.115Z,24.90
2023-04-08T23:57:50.717Z,28.70
